sensor_id;sensor_type;location;lat;lon;timestamp;pressure;altitude;pressure_sealevel;temperature;humidity
25855;BME280;13680;49.936;11.344;2023-03-11T00:00:07;95011.59;;;1.25;81.33
25855;BME280;13680;49.936;11.344;2023-03-11T00:02:38;95026.31;;;1.36;82.45
25855;BME280;13680;49.936;11.344;2023-03-11T00:05:03;95017.81;;;1.39;81.07
25855;BME280;13680;49.936;11.344;2023-03-11T00:07:28;95039.16;;;1.48;80.54
25855;BME280;13680;49.936;11.344;2023-03-11T00:09:54;95032.97;;;1.09;80.35
25855;BME280;13680;49.936;11.344;2023-03-11T00:12:19;95035.72;;;0.99;80.78
25855;BME280;13680;49.936;11.344;2023-03-11T00:14:44;95054.13;;;1.34;80.90
25855;BME280;13680;49.936;11.344;2023-03-11T00:17:10;95068.06;;;1.20;80.89
25855;BME280;13680;49.936;11.344;2023-03-11T00:19:35;95086.19;;;1.56;79.56
25855;BME280;13680;49.936;11.344;2023-03-11T00:22:01;95085.53;;;1.45;80.09
25855;BME280;13680;49.936;11.344;2023-03-11T00:24:27;95088.22;;;1.40;79.97
25855;BME280;13680;49.936;11.344;2023-03-11T00:26:52;95075.50;;;1.42;78.85
25855;BME280;13680;49.936;11.344;2023-03-11T00:29:17;95094.66;;;1.58;78.92
25855;BME280;13680;49.936;11.344;2023-03-11T00:31:43;95094.75;;;1.72;77.36
25855;BME280;13680;49.936;11.344;2023-03-11T00:34:08;95096.78;;;1.80;76.73
25855;BME280;13680;49.936;11.344;2023-03-11T00:36:33;95096.22;;;1.59;76.51
25855;BME280;13680;49.936;11.344;2023-03-11T00:39:00;95092.06;;;1.77;76.53
25855;BME280;13680;49.936;11.344;2023-03-11T00:41:26;95098.34;;;1.82;75.87
25855;BME280;13680;49.936;11.344;2023-03-11T00:43:52;95115.19;;;1.91;76.43
25855;BME280;13680;49.936;11.344;2023-03-11T00:46:17;95116.50;;;1.45;77.46
25855;BME280;13680;49.936;11.344;2023-03-11T00:48:42;95122.75;;;1.30;77.78
25855;BME280;13680;49.936;11.344;2023-03-11T00:51:13;95127.22;;;1.35;78.22
25855;BME280;13680;49.936;11.344;2023-03-11T00:53:39;95133.72;;;1.18;79.15
25855;BME280;13680;49.936;11.344;2023-03-11T00:56:12;95135.56;;;1.47;78.19
25855;BME280;13680;49.936;11.344;2023-03-11T00:58:39;95160.81;;;1.39;78.22
25855;BME280;13680;49.936;11.344;2023-03-11T01:01:13;95145.38;;;1.17;78.82
25855;BME280;13680;49.936;11.344;2023-03-11T01:03:39;95147.75;;;1.72;76.52
25855;BME280;13680;49.936;11.344;2023-03-11T01:06:05;95158.13;;;1.69;76.49
25855;BME280;13680;49.936;11.344;2023-03-11T01:08:31;95186.56;;;1.58;76.73
25855;BME280;13680;49.936;11.344;2023-03-11T01:10:57;95166.97;;;1.29;78.36
25855;BME280;13680;49.936;11.344;2023-03-11T01:13:24;95173.56;;;1.86;76.64
25855;BME280;13680;49.936;11.344;2023-03-11T01:15:50;95179.16;;;1.84;75.67
25855;BME280;13680;49.936;11.344;2023-03-11T01:18:16;95190.53;;;1.31;77.47
25855;BME280;13680;49.936;11.344;2023-03-11T01:20:41;95193.34;;;1.69;75.67
25855;BME280;13680;49.936;11.344;2023-03-11T01:23:07;95196.84;;;1.35;77.50
25855;BME280;13680;49.936;11.344;2023-03-11T01:25:33;95193.97;;;1.61;76.72
25855;BME280;13680;49.936;11.344;2023-03-11T01:27:59;95200.25;;;1.41;77.23
25855;BME280;13680;49.936;11.344;2023-03-11T01:30:26;95204.91;;;1.78;75.66
25855;BME280;13680;49.936;11.344;2023-03-11T01:32:52;95188.63;;;1.66;74.97
25855;BME280;13680;49.936;11.344;2023-03-11T01:35:21;95199.34;;;1.26;77.02
25855;BME280;13680;49.936;11.344;2023-03-11T01:37:47;95211.09;;;1.44;76.98
25855;BME280;13680;49.936;11.344;2023-03-11T01:40:29;95215.28;;;1.51;77.54
25855;BME280;13680;49.936;11.344;2023-03-11T01:42:55;95225.91;;;1.99;75.00
25855;BME280;13680;49.936;11.344;2023-03-11T01:48:09;95234.31;;;1.53;77.41
25855;BME280;13680;49.936;11.344;2023-03-11T01:50:39;95237.44;;;1.60;76.80
25855;BME280;13680;49.936;11.344;2023-03-11T01:53:05;95225.94;;;1.40;77.19
25855;BME280;13680;49.936;11.344;2023-03-11T01:55:32;95253.84;;;1.27;78.57
25855;BME280;13680;49.936;11.344;2023-03-11T01:58:00;95249.16;;;1.19;79.03
25855;BME280;13680;49.936;11.344;2023-03-11T02:00:27;95255.69;;;1.61;78.19
25855;BME280;13680;49.936;11.344;2023-03-11T02:02:54;95256.16;;;1.39;78.16
25855;BME280;13680;49.936;11.344;2023-03-11T02:05:23;95262.19;;;1.45;78.22
25855;BME280;13680;49.936;11.344;2023-03-11T02:07:49;95266.53;;;1.65;77.69
25855;BME280;13680;49.936;11.344;2023-03-11T02:10:15;95269.59;;;1.48;78.75
25855;BME280;13680;49.936;11.344;2023-03-11T02:12:42;95269.88;;;1.41;78.58
25855;BME280;13680;49.936;11.344;2023-03-11T02:15:09;95265.91;;;1.73;77.55
25855;BME280;13680;49.936;11.344;2023-03-11T02:17:36;95274.81;;;1.19;78.84
25855;BME280;13680;49.936;11.344;2023-03-11T02:20:15;95269.50;;;1.24;79.23
25855;BME280;13680;49.936;11.344;2023-03-11T02:22:43;95268.31;;;1.40;79.00
25855;BME280;13680;49.936;11.344;2023-03-11T02:25:31;95279.94;;;1.44;78.18
25855;BME280;13680;49.936;11.344;2023-03-11T02:28:00;95278.63;;;1.07;80.03
25855;BME280;13680;49.936;11.344;2023-03-11T02:30:27;95274.69;;;1.39;79.65
25855;BME280;13680;49.936;11.344;2023-03-11T02:32:53;95274.66;;;1.44;79.70
25855;BME280;13680;49.936;11.344;2023-03-11T02:35:20;95279.94;;;1.44;80.09
25855;BME280;13680;49.936;11.344;2023-03-11T02:37:47;95303.13;;;1.58;79.46
25855;BME280;13680;49.936;11.344;2023-03-11T02:42:44;95288.63;;;1.16;80.72
25855;BME280;13680;49.936;11.344;2023-03-11T02:45:11;95307.56;;;1.33;80.83
25855;BME280;13680;49.936;11.344;2023-03-11T02:47:38;95308.78;;;1.46;80.48
25855;BME280;13680;49.936;11.344;2023-03-11T02:50:06;95311.50;;;1.41;81.62
25855;BME280;13680;49.936;11.344;2023-03-11T02:52:34;95310.16;;;1.43;81.55
25855;BME280;13680;49.936;11.344;2023-03-11T02:55:00;95317.78;;;1.79;80.07
25855;BME280;13680;49.936;11.344;2023-03-11T02:57:26;95319.94;;;1.77;79.11
25855;BME280;13680;49.936;11.344;2023-03-11T02:59:51;95331.09;;;0.95;84.83
25855;BME280;13680;49.936;11.344;2023-03-11T03:02:16;95320.13;;;1.52;82.95
25855;BME280;13680;49.936;11.344;2023-03-11T03:04:42;95319.81;;;1.19;83.48
25855;BME280;13680;49.936;11.344;2023-03-11T03:07:07;95332.09;;;1.04;84.46
25855;BME280;13680;49.936;11.344;2023-03-11T03:09:34;95330.25;;;1.05;85.21
25855;BME280;13680;49.936;11.344;2023-03-11T03:12:00;95320.25;;;1.36;83.38
25855;BME280;13680;49.936;11.344;2023-03-11T03:14:25;95337.72;;;0.92;85.65
25855;BME280;13680;49.936;11.344;2023-03-11T03:16:51;95337.72;;;1.37;84.09
25855;BME280;13680;49.936;11.344;2023-03-11T03:19:16;95352.84;;;1.71;82.46
25855;BME280;13680;49.936;11.344;2023-03-11T03:21:42;95352.66;;;1.62;82.41
25855;BME280;13680;49.936;11.344;2023-03-11T03:24:07;95355.63;;;1.56;82.83
25855;BME280;13680;49.936;11.344;2023-03-11T03:26:32;95360.34;;;1.19;83.02
25855;BME280;13680;49.936;11.344;2023-03-11T03:28:58;95355.63;;;1.56;83.32
25855;BME280;13680;49.936;11.344;2023-03-11T03:31:23;95363.69;;;0.85;85.90
25855;BME280;13680;49.936;11.344;2023-03-11T03:33:48;95365.28;;;0.86;86.06
25855;BME280;13680;49.936;11.344;2023-03-11T03:36:14;95364.84;;;1.24;85.04
25855;BME280;13680;49.936;11.344;2023-03-11T03:38:40;95365.50;;;0.95;86.00
25855;BME280;13680;49.936;11.344;2023-03-11T03:41:05;95368.44;;;0.93;85.67
25855;BME280;13680;49.936;11.344;2023-03-11T03:43:31;95370.06;;;1.34;83.83
25855;BME280;13680;49.936;11.344;2023-03-11T03:46:00;95372.25;;;1.22;83.81
25855;BME280;13680;49.936;11.344;2023-03-11T03:48:29;95377.47;;;1.32;82.82
25855;BME280;13680;49.936;11.344;2023-03-11T03:50:54;95381.28;;;1.16;82.21
25855;BME280;13680;49.936;11.344;2023-03-11T03:53:20;95393.00;;;1.49;82.31
25855;BME280;13680;49.936;11.344;2023-03-11T03:55:45;95393.75;;;1.10;83.66
25855;BME280;13680;49.936;11.344;2023-03-11T03:58:11;95395.28;;;1.16;82.69
25855;BME280;13680;49.936;11.344;2023-03-11T04:00:36;95398.97;;;1.25;82.99
25855;BME280;13680;49.936;11.344;2023-03-11T04:03:03;95400.41;;;1.02;84.33
25855;BME280;13680;49.936;11.344;2023-03-11T04:05:28;95399.34;;;0.98;83.88
25855;BME280;13680;49.936;11.344;2023-03-11T04:07:54;95401.28;;;1.37;83.63
25855;BME280;13680;49.936;11.344;2023-03-11T04:10:19;95407.09;;;1.44;82.66
25855;BME280;13680;49.936;11.344;2023-03-11T04:12:44;95419.13;;;1.66;81.32
25855;BME280;13680;49.936;11.344;2023-03-11T04:15:10;95414.00;;;1.35;81.35
25855;BME280;13680;49.936;11.344;2023-03-11T04:17:36;95422.28;;;1.23;82.16
25855;BME280;13680;49.936;11.344;2023-03-11T04:20:02;95426.59;;;1.04;82.23
25855;BME280;13680;49.936;11.344;2023-03-11T04:22:28;95431.47;;;1.36;81.74
25855;BME280;13680;49.936;11.344;2023-03-11T04:24:54;95440.22;;;1.37;81.21
25855;BME280;13680;49.936;11.344;2023-03-11T04:27:19;95443.66;;;1.37;80.94
25855;BME280;13680;49.936;11.344;2023-03-11T04:29:44;95448.00;;;1.12;81.37
25855;BME280;13680;49.936;11.344;2023-03-11T04:32:10;95450.28;;;1.35;80.93
25855;BME280;13680;49.936;11.344;2023-03-11T04:34:35;95453.38;;;0.87;82.64
25855;BME280;13680;49.936;11.344;2023-03-11T04:37:00;95452.22;;;1.24;81.91
25855;BME280;13680;49.936;11.344;2023-03-11T04:39:25;95455.78;;;1.49;80.18
25855;BME280;13680;49.936;11.344;2023-03-11T04:41:51;95460.97;;;1.69;79.20
25855;BME280;13680;49.936;11.344;2023-03-11T04:44:16;95459.47;;;1.53;79.90
25855;BME280;13680;49.936;11.344;2023-03-11T04:46:41;95457.53;;;1.08;81.17
25855;BME280;13680;49.936;11.344;2023-03-11T04:49:07;95460.59;;;1.41;80.45
25855;BME280;13680;49.936;11.344;2023-03-11T04:51:33;95452.19;;;1.29;80.78
25855;BME280;13680;49.936;11.344;2023-03-11T04:53:59;95459.56;;;1.32;81.36
25855;BME280;13680;49.936;11.344;2023-03-11T04:56:24;95472.94;;;1.01;83.65
25855;BME280;13680;49.936;11.344;2023-03-11T04:58:49;95467.06;;;1.09;84.95
25855;BME280;13680;49.936;11.344;2023-03-11T05:01:15;95471.72;;;1.38;83.68
25855;BME280;13680;49.936;11.344;2023-03-11T05:03:40;95468.56;;;1.36;84.20
25855;BME280;13680;49.936;11.344;2023-03-11T05:06:05;95469.22;;;1.62;82.98
25855;BME280;13680;49.936;11.344;2023-03-11T05:08:31;95468.44;;;1.57;82.70
25855;BME280;13680;49.936;11.344;2023-03-11T05:10:56;95469.72;;;1.70;81.67
25855;BME280;13680;49.936;11.344;2023-03-11T05:13:21;95481.38;;;1.69;82.04
25855;BME280;13680;49.936;11.344;2023-03-11T05:15:47;95483.16;;;1.78;81.72
25855;BME280;13680;49.936;11.344;2023-03-11T05:18:13;95491.63;;;1.86;81.50
25855;BME280;13680;49.936;11.344;2023-03-11T05:20:38;95492.75;;;1.69;81.99
25855;BME280;13680;49.936;11.344;2023-03-11T05:23:04;95507.78;;;1.34;84.23
25855;BME280;13680;49.936;11.344;2023-03-11T05:25:29;95517.59;;;1.23;85.05
25855;BME280;13680;49.936;11.344;2023-03-11T05:27:55;95523.03;;;0.30;85.34
25855;BME280;13680;49.936;11.344;2023-03-11T05:30:21;95526.97;;;0.43;86.43
25855;BME280;13680;49.936;11.344;2023-03-11T05:32:46;95519.56;;;0.76;85.03
25855;BME280;13680;49.936;11.344;2023-03-11T05:35:13;95517.19;;;0.75;82.73
25855;BME280;13680;49.936;11.344;2023-03-11T05:37:38;95524.84;;;0.76;83.28
25855;BME280;13680;49.936;11.344;2023-03-11T05:40:05;95542.03;;;1.05;82.58
25855;BME280;13680;49.936;11.344;2023-03-11T05:42:32;95534.66;;;0.76;83.22
25855;BME280;13680;49.936;11.344;2023-03-11T05:44:57;95538.31;;;0.90;81.77
25855;BME280;13680;49.936;11.344;2023-03-11T05:47:22;95544.94;;;0.88;80.57
25855;BME280;13680;49.936;11.344;2023-03-11T05:49:48;95546.56;;;0.73;80.09
25855;BME280;13680;49.936;11.344;2023-03-11T05:52:14;95558.75;;;0.69;79.64
25855;BME280;13680;49.936;11.344;2023-03-11T05:54:39;95552.59;;;1.05;78.97
25855;BME280;13680;49.936;11.344;2023-03-11T05:57:05;95563.91;;;1.31;77.05
25855;BME280;13680;49.936;11.344;2023-03-11T05:59:30;95561.81;;;1.28;76.90
25855;BME280;13680;49.936;11.344;2023-03-11T06:01:56;95566.53;;;1.41;75.70
25855;BME280;13680;49.936;11.344;2023-03-11T06:04:22;95565.22;;;1.39;74.96
25855;BME280;13680;49.936;11.344;2023-03-11T06:06:47;95564.72;;;1.32;74.76
25855;BME280;13680;49.936;11.344;2023-03-11T06:09:13;95552.53;;;1.36;74.20
25855;BME280;13680;49.936;11.344;2023-03-11T06:11:39;95557.81;;;1.36;74.30
25855;BME280;13680;49.936;11.344;2023-03-11T06:14:05;95563.91;;;1.36;74.21
25855;BME280;13680;49.936;11.344;2023-03-11T06:16:30;95560.19;;;1.37;73.51
25855;BME280;13680;49.936;11.344;2023-03-11T06:18:56;95564.41;;;1.49;73.28
25855;BME280;13680;49.936;11.344;2023-03-11T06:21:23;95565.72;;;1.51;72.57
25855;BME280;13680;49.936;11.344;2023-03-11T06:23:49;95579.19;;;1.65;72.53
25855;BME280;13680;49.936;11.344;2023-03-11T06:26:17;95589.81;;;1.55;71.95
25855;BME280;13680;49.936;11.344;2023-03-11T06:28:43;95588.06;;;1.90;71.17
25855;BME280;13680;49.936;11.344;2023-03-11T06:31:12;95598.41;;;1.86;71.35
25855;BME280;13680;49.936;11.344;2023-03-11T06:33:38;95607.19;;;2.37;69.52
25855;BME280;13680;49.936;11.344;2023-03-11T06:36:04;95605.16;;;2.23;69.20
25855;BME280;13680;49.936;11.344;2023-03-11T06:38:31;95611.22;;;2.29;68.97
25855;BME280;13680;49.936;11.344;2023-03-11T06:41:01;95619.69;;;2.71;67.87
25855;BME280;13680;49.936;11.344;2023-03-11T06:43:28;95621.50;;;2.75;67.39
25855;BME280;13680;49.936;11.344;2023-03-11T06:45:54;95621.78;;;2.74;67.71
25855;BME280;13680;49.936;11.344;2023-03-11T06:48:19;95618.28;;;2.84;66.35
25855;BME280;13680;49.936;11.344;2023-03-11T06:50:52;95622.22;;;2.86;66.34
25855;BME280;13680;49.936;11.344;2023-03-11T06:53:18;95627.38;;;2.72;66.15
25855;BME280;13680;49.936;11.344;2023-03-11T06:55:43;95625.84;;;2.21;67.51
25855;BME280;13680;49.936;11.344;2023-03-11T06:58:08;95626.44;;;2.58;67.58
25855;BME280;13680;49.936;11.344;2023-03-11T07:00:34;95636.22;;;2.57;67.15
25855;BME280;13680;49.936;11.344;2023-03-11T07:02:59;95642.75;;;2.75;66.30
25855;BME280;13680;49.936;11.344;2023-03-11T07:05:24;95634.63;;;3.31;65.43
25855;BME280;13680;49.936;11.344;2023-03-11T07:07:53;95636.00;;;3.52;64.57
25855;BME280;13680;49.936;11.344;2023-03-11T07:10:19;95646.63;;;3.52;64.26
25855;BME280;13680;49.936;11.344;2023-03-11T07:12:44;95656.69;;;3.80;62.87
25855;BME280;13680;49.936;11.344;2023-03-11T07:15:10;95665.03;;;3.14;63.34
25855;BME280;13680;49.936;11.344;2023-03-11T07:17:35;95669.00;;;3.46;62.50
25855;BME280;13680;49.936;11.344;2023-03-11T07:20:01;95666.44;;;3.06;63.59
25855;BME280;13680;49.936;11.344;2023-03-11T07:22:26;95669.88;;;3.07;64.25
25855;BME280;13680;49.936;11.344;2023-03-11T07:24:51;95673.03;;;3.43;63.91
25855;BME280;13680;49.936;11.344;2023-03-11T07:27:17;95676.34;;;3.25;63.73
25855;BME280;13680;49.936;11.344;2023-03-11T07:29:42;95671.56;;;3.56;62.95
25855;BME280;13680;49.936;11.344;2023-03-11T07:32:08;95672.94;;;3.78;62.95
25855;BME280;13680;49.936;11.344;2023-03-11T07:34:33;95670.16;;;4.13;61.95
25855;BME280;13680;49.936;11.344;2023-03-11T07:37:00;95678.56;;;3.76;61.02
25855;BME280;13680;49.936;11.344;2023-03-11T07:39:25;95681.91;;;3.58;61.78
25855;BME280;13680;49.936;11.344;2023-03-11T07:41:51;95687.53;;;3.81;61.16
25855;BME280;13680;49.936;11.344;2023-03-11T07:44:16;95696.84;;;3.54;62.10
25855;BME280;13680;49.936;11.344;2023-03-11T07:46:42;95693.28;;;3.34;63.70
25855;BME280;13680;49.936;11.344;2023-03-11T07:49:08;95702.59;;;2.97;64.65
25855;BME280;13680;49.936;11.344;2023-03-11T07:51:35;95709.78;;;3.31;63.34
25855;BME280;13680;49.936;11.344;2023-03-11T07:54:01;95710.69;;;3.16;63.06
25855;BME280;13680;49.936;11.344;2023-03-11T07:56:29;95711.09;;;3.63;61.80
25855;BME280;13680;49.936;11.344;2023-03-11T07:58:56;95713.84;;;3.53;61.85
25855;BME280;13680;49.936;11.344;2023-03-11T08:01:24;95716.38;;;3.68;60.09
25855;BME280;13680;49.936;11.344;2023-03-11T08:03:51;95715.16;;;3.55;59.56
25855;BME280;13680;49.936;11.344;2023-03-11T08:06:24;95725.84;;;3.16;61.26
25855;BME280;13680;49.936;11.344;2023-03-11T08:08:50;95731.81;;;2.97;60.58
25855;BME280;13680;49.936;11.344;2023-03-11T08:11:16;95732.13;;;2.90;61.65
25855;BME280;13680;49.936;11.344;2023-03-11T08:13:43;95734.38;;;3.13;61.29
25855;BME280;13680;49.936;11.344;2023-03-11T08:16:12;95741.59;;;3.41;61.53
25855;BME280;13680;49.936;11.344;2023-03-11T08:18:37;95754.09;;;3.70;60.11
25855;BME280;13680;49.936;11.344;2023-03-11T08:21:14;95743.63;;;4.08;59.43
25855;BME280;13680;49.936;11.344;2023-03-11T08:23:39;95750.88;;;3.73;58.22
25855;BME280;13680;49.936;11.344;2023-03-11T08:26:07;95759.38;;;3.06;61.03
25855;BME280;13680;49.936;11.344;2023-03-11T08:28:32;95756.47;;;3.03;60.22
25855;BME280;13680;49.936;11.344;2023-03-11T08:30:58;95764.34;;;3.53;59.96
25855;BME280;13680;49.936;11.344;2023-03-11T08:33:24;95758.38;;;3.71;58.78
25855;BME280;13680;49.936;11.344;2023-03-11T08:35:49;95770.50;;;3.08;58.10
25855;BME280;13680;49.936;11.344;2023-03-11T08:38:14;95779.09;;;3.69;58.87
25855;BME280;13680;49.936;11.344;2023-03-11T08:40:40;95781.47;;;3.71;57.41
25855;BME280;13680;49.936;11.344;2023-03-11T08:43:05;95793.88;;;3.11;57.58
25855;BME280;13680;49.936;11.344;2023-03-11T08:45:32;95789.97;;;3.73;56.90
25855;BME280;13680;49.936;11.344;2023-03-11T08:47:57;95792.53;;;3.54;56.40
25855;BME280;13680;49.936;11.344;2023-03-11T08:50:23;95798.22;;;4.54;55.12
25855;BME280;13680;49.936;11.344;2023-03-11T08:52:48;95793.63;;;5.03;54.62
25855;BME280;13680;49.936;11.344;2023-03-11T08:55:15;95786.03;;;5.68;52.36
25855;BME280;13680;49.936;11.344;2023-03-11T08:57:42;95797.19;;;5.51;51.85
25855;BME280;13680;49.936;11.344;2023-03-11T09:00:10;95797.78;;;5.67;50.92
25855;BME280;13680;49.936;11.344;2023-03-11T09:02:36;95800.75;;;5.08;52.72
25855;BME280;13680;49.936;11.344;2023-03-11T09:05:01;95803.28;;;5.18;53.15
25855;BME280;13680;49.936;11.344;2023-03-11T09:07:27;95821.56;;;3.80;56.74
25855;BME280;13680;49.936;11.344;2023-03-11T09:09:52;95825.09;;;3.99;55.24
25855;BME280;13680;49.936;11.344;2023-03-11T09:12:19;95827.72;;;3.35;57.06
25855;BME280;13680;49.936;11.344;2023-03-11T09:14:44;95834.19;;;3.64;57.04
25855;BME280;13680;49.936;11.344;2023-03-11T09:17:10;95833.50;;;3.48;58.12
25855;BME280;13680;49.936;11.344;2023-03-11T09:19:39;95830.56;;;3.84;57.65
25855;BME280;13680;49.936;11.344;2023-03-11T09:22:05;95836.47;;;4.10;56.84
25855;BME280;13680;49.936;11.344;2023-03-11T09:24:34;95827.19;;;4.07;56.52
25855;BME280;13680;49.936;11.344;2023-03-11T09:27:00;95829.75;;;4.18;57.80
25855;BME280;13680;49.936;11.344;2023-03-11T09:29:26;95825.97;;;3.60;57.65
25855;BME280;13680;49.936;11.344;2023-03-11T09:31:52;95830.84;;;4.12;56.14
25855;BME280;13680;49.936;11.344;2023-03-11T09:34:17;95839.09;;;3.81;57.84
25855;BME280;13680;49.936;11.344;2023-03-11T09:36:43;95841.78;;;4.10;57.10
25855;BME280;13680;49.936;11.344;2023-03-11T09:39:08;95845.06;;;4.26;56.54
25855;BME280;13680;49.936;11.344;2023-03-11T09:41:41;95851.06;;;4.13;55.03
25855;BME280;13680;49.936;11.344;2023-03-11T09:44:19;95852.63;;;3.50;56.32
25855;BME280;13680;49.936;11.344;2023-03-11T09:49:36;95854.94;;;3.62;56.96
25855;BME280;13680;49.936;11.344;2023-03-11T09:52:15;95865.38;;;3.87;56.66
25855;BME280;13680;49.936;11.344;2023-03-11T09:54:47;95865.69;;;4.15;56.04
25855;BME280;13680;49.936;11.344;2023-03-11T09:57:19;95869.13;;;3.41;57.91
25855;BME280;13680;49.936;11.344;2023-03-11T09:59:47;95875.84;;;3.73;57.86
25855;BME280;13680;49.936;11.344;2023-03-11T10:02:18;95880.44;;;3.63;57.97
25855;BME280;13680;49.936;11.344;2023-03-11T10:04:57;95877.84;;;3.52;58.31
25855;BME280;13680;49.936;11.344;2023-03-11T10:07:32;95881.75;;;4.34;57.91
25855;BME280;13680;49.936;11.344;2023-03-11T10:09:59;95880.84;;;4.44;57.59
25855;BME280;13680;49.936;11.344;2023-03-11T10:15:12;95884.94;;;4.36;58.20
25855;BME280;13680;49.936;11.344;2023-03-11T10:17:45;95875.34;;;4.35;57.06
25855;BME280;13680;49.936;11.344;2023-03-11T10:20:25;95884.63;;;4.08;57.54
25855;BME280;13680;49.936;11.344;2023-03-11T10:25:45;95881.31;;;3.87;58.51
25855;BME280;13680;49.936;11.344;2023-03-11T10:28:15;95885.06;;;4.74;56.31
25855;BME280;13680;49.936;11.344;2023-03-11T10:30:42;95874.88;;;5.25;53.17
25855;BME280;13680;49.936;11.344;2023-03-11T10:33:26;95882.09;;;5.24;54.11
25855;BME280;13680;49.936;11.344;2023-03-11T10:35:58;95880.06;;;4.14;54.88
25855;BME280;13680;49.936;11.344;2023-03-11T10:38:28;95885.00;;;4.26;55.76
25855;BME280;13680;49.936;11.344;2023-03-11T10:40:57;95886.47;;;3.73;56.65
25855;BME280;13680;49.936;11.344;2023-03-11T10:43:40;95882.38;;;4.21;55.36
25855;BME280;13680;49.936;11.344;2023-03-11T10:46:21;95901.28;;;4.49;54.39
25855;BME280;13680;49.936;11.344;2023-03-11T10:48:47;95902.56;;;4.56;55.15
25855;BME280;13680;49.936;11.344;2023-03-11T10:51:19;95902.56;;;3.53;57.44
25855;BME280;13680;49.936;11.344;2023-03-11T10:53:53;95901.13;;;3.21;58.00
25855;BME280;13680;49.936;11.344;2023-03-11T10:56:29;95905.44;;;3.62;56.84
25855;BME280;13680;49.936;11.344;2023-03-11T10:58:55;95914.34;;;3.36;58.67
25855;BME280;13680;49.936;11.344;2023-03-11T11:01:21;95912.22;;;3.38;58.34
25855;BME280;13680;49.936;11.344;2023-03-11T11:03:49;95914.78;;;3.54;58.44
25855;BME280;13680;49.936;11.344;2023-03-11T11:06:28;95913.28;;;3.37;59.24
25855;BME280;13680;49.936;11.344;2023-03-11T11:11:28;95929.50;;;3.81;58.73
25855;BME280;13680;49.936;11.344;2023-03-11T11:13:58;95919.13;;;3.39;57.25
25855;BME280;13680;49.936;11.344;2023-03-11T11:16:25;95918.94;;;3.20;57.87
25855;BME280;13680;49.936;11.344;2023-03-11T11:19:11;95921.50;;;3.86;55.85
25855;BME280;13680;49.936;11.344;2023-03-11T11:21:40;95918.53;;;4.27;54.63
25855;BME280;13680;49.936;11.344;2023-03-11T11:24:21;95920.31;;;4.02;53.23
25855;BME280;13680;49.936;11.344;2023-03-11T11:29:42;95918.31;;;5.01;53.10
25855;BME280;13680;49.936;11.344;2023-03-11T11:34:41;95917.13;;;4.64;51.33
25855;BME280;13680;49.936;11.344;2023-03-11T11:37:10;95922.53;;;4.24;50.20
25855;BME280;13680;49.936;11.344;2023-03-11T11:39:47;95920.56;;;4.06;52.89
25855;BME280;13680;49.936;11.344;2023-03-11T11:42:18;95919.88;;;4.54;51.85
25855;BME280;13680;49.936;11.344;2023-03-11T11:44:48;95913.16;;;4.32;51.77
25855;BME280;13680;49.936;11.344;2023-03-11T11:47:18;95917.63;;;4.66;52.24
25855;BME280;13680;49.936;11.344;2023-03-11T11:49:56;95914.56;;;4.54;52.29
25855;BME280;13680;49.936;11.344;2023-03-11T11:52:26;95916.16;;;4.79;52.11
25855;BME280;13680;49.936;11.344;2023-03-11T11:55:06;95920.69;;;4.25;52.85
25855;BME280;13680;49.936;11.344;2023-03-11T11:57:41;95911.97;;;3.80;53.54
25855;BME280;13680;49.936;11.344;2023-03-11T12:00:17;95920.84;;;3.99;53.73
25855;BME280;13680;49.936;11.344;2023-03-11T12:06:26;95929.41;;;3.96;54.45
25855;BME280;13680;49.936;11.344;2023-03-11T12:11:38;95919.28;;;3.98;52.01
25855;BME280;13680;49.936;11.344;2023-03-11T12:14:28;95917.88;;;4.70;52.70
25855;BME280;13680;49.936;11.344;2023-03-11T12:16:59;95907.59;;;4.29;51.94
25855;BME280;13680;49.936;11.344;2023-03-11T12:19:33;95907.28;;;4.65;51.55
25855;BME280;13680;49.936;11.344;2023-03-11T12:27:59;95914.34;;;5.23;49.94
25855;BME280;13680;49.936;11.344;2023-03-11T12:30:32;95913.97;;;5.11;52.07
25855;BME280;13680;49.936;11.344;2023-03-11T12:33:17;95919.59;;;4.85;48.24
25855;BME280;13680;49.936;11.344;2023-03-11T12:35:51;95915.63;;;5.25;48.35
25855;BME280;13680;49.936;11.344;2023-03-11T12:38:23;95914.25;;;5.71;48.39
25855;BME280;13680;49.936;11.344;2023-03-11T12:46:01;95917.97;;;5.32;46.97
25855;BME280;13680;49.936;11.344;2023-03-11T12:48:31;95915.56;;;5.55;46.87
25855;BME280;13680;49.936;11.344;2023-03-11T12:50:57;95914.25;;;5.52;45.00
25855;BME280;13680;49.936;11.344;2023-03-11T12:53:48;95911.31;;;5.73;45.69
25855;BME280;13680;49.936;11.344;2023-03-11T13:18:11;95911.28;;;5.92;43.10
25855;BME280;13680;49.936;11.344;2023-03-11T13:25:40;95932.69;;;5.49;46.21
25855;BME280;13680;49.936;11.344;2023-03-11T13:28:48;95944.41;;;5.04;48.05
25855;BME280;13680;49.936;11.344;2023-03-11T13:34:12;95949.78;;;4.46;48.98
25855;BME280;13680;49.936;11.344;2023-03-11T13:42:30;95962.72;;;4.87;50.54
25855;BME280;13680;49.936;11.344;2023-03-11T13:44:58;95962.84;;;4.71;49.25
25855;BME280;13680;49.936;11.344;2023-03-11T13:47:24;95957.41;;;4.23;50.18
25855;BME280;13680;49.936;11.344;2023-03-11T13:50:09;95958.59;;;4.70;47.06
25855;BME280;13680;49.936;11.344;2023-03-11T13:52:43;95975.84;;;4.78;48.15
25855;BME280;13680;49.936;11.344;2023-03-11T13:55:38;95966.56;;;5.24;48.40
25855;BME280;13680;49.936;11.344;2023-03-11T13:58:22;95966.28;;;5.01;48.19
25855;BME280;13680;49.936;11.344;2023-03-11T14:00:50;95970.69;;;4.57;49.29
25855;BME280;13680;49.936;11.344;2023-03-11T14:03:17;95983.72;;;4.59;50.03
25855;BME280;13680;49.936;11.344;2023-03-11T14:05:49;95985.75;;;4.72;49.34
25855;BME280;13680;49.936;11.344;2023-03-11T14:08:25;95990.53;;;4.41;50.19
25855;BME280;13680;49.936;11.344;2023-03-11T14:18:37;96011.03;;;4.75;49.71
25855;BME280;13680;49.936;11.344;2023-03-11T14:21:06;96007.50;;;4.50;49.04
25855;BME280;13680;49.936;11.344;2023-03-11T14:23:39;96006.28;;;4.67;50.28
25855;BME280;13680;49.936;11.344;2023-03-11T14:26:08;96014.56;;;4.95;50.73